Washburn, IA

11:29 AM CDT on August 30, 2014 (GMT -0500)
Waterloo Municipal | Change Station
CLOSE
Current Station
Airport
Location: Waterloo,
Elevation: 873 ft
Nearby Weather Stations

Elev 873 ft 42.55 °N, 92.40 °W | Updated 20 minutes ago

Overcast
Overcast
72 °F
Feels Like 72 °F
N
12
Wind Variable Wind from West

Today
High -- | Low -- °F
--% Chance of Precip.
Yesterday
High -- | Low -- °F
Precip. -- in
6:32 AM 7:46 PM
Waxing Crescent, 23% visible
Pressure 29.86 in
Visibility 10.0 miles
Clouds Scattered Clouds 1300 ft
Overcast 2300 ft
Dew Point 66 °F
Humidity 81%
Rainfall 0.21 in
Snow Depth Not available.
UV 2 out of 12
Pollen 6.70 out of 12
Air Quality Not available.
Flu Activity Not available.
SPECI KALO 301609Z 28010KT 10SM SCT013 OVC023 22/19 A2986 RMK AO2 T02220189

More Conditions Fewer Conditions

Pressure 29.86 in
Visibility 10.0 miles
Clouds Scattered Clouds 1300 ft
Overcast 2300 ft
Dew Point 66 °F
Humidity 81%
Rainfall 0.21 in
Snow Depth Not available.
UV 2 out of 12
Pollen 6.70 out of 12
Air Quality Not available.
Flu Activity Not available.
SPECI KALO 301609Z 28010KT 10SM SCT013 OVC023 22/19 A2986 RMK AO2 T02220189

More Conditions Fewer Conditions

10-Day Weather Forecast

Almanac

Astronomy

Aug. 30, 2014 Rise Set
Actual Time 6:32 AM CDT 7:46 PM CDT
Civil Twilight 6:03 AM CDT 8:15 PM CDT
Nautical Twilight 5:28 AM CDT 8:50 PM CDT
Astronomical Twilight 4:51 AM CDT 9:27 PM CDT
Moon 11:26 AM CDT 10:14 PM CDT
Length of Visible Light 14h 12m
Length of Day
13h 14m
Tomorrow will be 2m 45s shorter.
Waxing Crescent, 23% of the Moon is Illuminated
Today
Waxing Crescent
Sep 2
First Quarter
Sep 8
Full
Sep 15
Last Quarter
Sep 24
New

Today's Extremes

State Highs State Lows

Community

WunderPhotos

Upload Photos

1,748,556 photos uploaded!

WunderBlogs® & News

Nearby

Snow Depth

Station Depth Elevation
No new snow has been reported.

Earthquake Activity

City Distance Mag. Time & Date
No recent earthquake activity has been reported nearby.
Minimum magnitude displayed is 2.5.

Coastal Water Temperatures

Place Temperature
No Stations Reporting

Nearby Weather Stations